sensor_id;sensor_type;location;lat;lon;timestamp;temperature;humidity
24686;DHT22;12804;51.176;4.452;2023-05-16T00:00:23;10.20;1.00
24686;DHT22;12804;51.176;4.452;2023-05-16T00:03:05;10.10;1.00
24686;DHT22;12804;51.176;4.452;2023-05-16T00:05:31;10.00;1.00
24686;DHT22;12804;51.176;4.452;2023-05-16T00:07:56;10.10;1.00
24686;DHT22;12804;51.176;4.452;2023-05-16T00:10:22;10.00;1.00
24686;DHT22;12804;51.176;4.452;2023-05-16T00:12:48;10.00;1.00
24686;DHT22;12804;51.176;4.452;2023-05-16T00:15:17;9.90;1.00
24686;DHT22;12804;51.176;4.452;2023-05-16T00:17:45;9.80;1.00
24686;DHT22;12804;51.176;4.452;2023-05-16T00:20:15;9.90;1.00
24686;DHT22;12804;51.176;4.452;2023-05-16T00:22:43;9.90;1.00
24686;DHT22;12804;51.176;4.452;2023-05-16T00:25:11;9.90;1.00
24686;DHT22;12804;51.176;4.452;2023-05-16T00:27:37;10.00;1.00
24686;DHT22;12804;51.176;4.452;2023-05-16T00:30:04;10.00;1.00
24686;DHT22;12804;51.176;4.452;2023-05-16T00:32:30;9.90;1.00
24686;DHT22;12804;51.176;4.452;2023-05-16T00:34:56;10.00;1.00
24686;DHT22;12804;51.176;4.452;2023-05-16T00:37:22;10.00;1.00
24686;DHT22;12804;51.176;4.452;2023-05-16T00:39:47;9.90;1.00
24686;DHT22;12804;51.176;4.452;2023-05-16T00:42:13;9.90;1.00
24686;DHT22;12804;51.176;4.452;2023-05-16T00:44:39;9.90;1.00
24686;DHT22;12804;51.176;4.452;2023-05-16T00:47:06;9.90;1.00
24686;DHT22;12804;51.176;4.452;2023-05-16T00:49:32;9.90;1.00
24686;DHT22;12804;51.176;4.452;2023-05-16T00:51:58;9.80;1.00
24686;DHT22;12804;51.176;4.452;2023-05-16T00:54:25;9.80;1.00
24686;DHT22;12804;51.176;4.452;2023-05-16T00:56:54;9.80;1.00
24686;DHT22;12804;51.176;4.452;2023-05-16T00:59:22;9.80;1.00
24686;DHT22;12804;51.176;4.452;2023-05-16T01:01:49;9.90;1.00
24686;DHT22;12804;51.176;4.452;2023-05-16T01:04:20;9.90;1.00
24686;DHT22;12804;51.176;4.452;2023-05-16T01:06:46;9.80;1.00
24686;DHT22;12804;51.176;4.452;2023-05-16T01:09:12;9.80;1.00
24686;DHT22;12804;51.176;4.452;2023-05-16T01:14:34;9.80;1.00
24686;DHT22;12804;51.176;4.452;2023-05-16T01:20:19;9.70;1.00
24686;DHT22;12804;51.176;4.452;2023-05-16T01:28:06;9.50;1.00
24686;DHT22;12804;51.176;4.452;2023-05-16T01:30:39;9.50;1.00
24686;DHT22;12804;51.176;4.452;2023-05-16T01:33:07;9.50;1.00
24686;DHT22;12804;51.176;4.452;2023-05-16T01:38:26;9.50;1.00
24686;DHT22;12804;51.176;4.452;2023-05-16T01:40:58;9.50;1.00
24686;DHT22;12804;51.176;4.452;2023-05-16T01:43:32;9.50;1.00
24686;DHT22;12804;51.176;4.452;2023-05-16T01:46:08;9.50;1.00
24686;DHT22;12804;51.176;4.452;2023-05-16T01:49:16;9.50;1.00
24686;DHT22;12804;51.176;4.452;2023-05-16T01:51:51;9.50;1.00
24686;DHT22;12804;51.176;4.452;2023-05-16T01:54:19;9.40;1.00
24686;DHT22;12804;51.176;4.452;2023-05-16T01:56:51;9.30;1.00
24686;DHT22;12804;51.176;4.452;2023-05-16T01:59:22;9.30;1.00
24686;DHT22;12804;51.176;4.452;2023-05-16T02:01:48;9.20;1.00
24686;DHT22;12804;51.176;4.452;2023-05-16T02:04:14;9.20;1.00
24686;DHT22;12804;51.176;4.452;2023-05-16T02:06:41;9.10;1.60
24686;DHT22;12804;51.176;4.452;2023-05-16T02:09:07;9.20;4.50
24686;DHT22;12804;51.176;4.452;2023-05-16T02:11:33;9.20;3.20
24686;DHT22;12804;51.176;4.452;2023-05-16T02:13:59;9.10;1.00
24686;DHT22;12804;51.176;4.452;2023-05-16T02:16:25;9.10;1.10
24686;DHT22;12804;51.176;4.452;2023-05-16T02:18:50;9.10;1.00
24686;DHT22;12804;51.176;4.452;2023-05-16T02:21:16;9.10;1.00
24686;DHT22;12804;51.176;4.452;2023-05-16T02:23:42;9.20;1.00
24686;DHT22;12804;51.176;4.452;2023-05-16T02:26:08;9.20;1.00
24686;DHT22;12804;51.176;4.452;2023-05-16T02:28:34;9.20;1.00
24686;DHT22;12804;51.176;4.452;2023-05-16T02:31:01;9.20;1.00
24686;DHT22;12804;51.176;4.452;2023-05-16T02:33:27;9.20;1.00
24686;DHT22;12804;51.176;4.452;2023-05-16T02:35:54;9.30;1.00
24686;DHT22;12804;51.176;4.452;2023-05-16T02:38:20;9.20;1.00
24686;DHT22;12804;51.176;4.452;2023-05-16T02:40:48;9.20;1.00
24686;DHT22;12804;51.176;4.452;2023-05-16T02:43:14;9.20;1.00
24686;DHT22;12804;51.176;4.452;2023-05-16T02:45:41;9.20;1.00
24686;DHT22;12804;51.176;4.452;2023-05-16T02:48:07;9.30;1.00
24686;DHT22;12804;51.176;4.452;2023-05-16T02:50:34;9.20;1.00
24686;DHT22;12804;51.176;4.452;2023-05-16T02:53:00;9.20;1.00
24686;DHT22;12804;51.176;4.452;2023-05-16T02:55:30;9.20;1.00
24686;DHT22;12804;51.176;4.452;2023-05-16T02:57:55;9.10;1.00
24686;DHT22;12804;51.176;4.452;2023-05-16T03:00:21;9.10;1.00
24686;DHT22;12804;51.176;4.452;2023-05-16T03:02:48;9.10;1.00
24686;DHT22;12804;51.176;4.452;2023-05-16T03:05:13;9.20;1.00
24686;DHT22;12804;51.176;4.452;2023-05-16T03:07:40;9.20;1.00
24686;DHT22;12804;51.176;4.452;2023-05-16T03:10:06;9.10;1.00
24686;DHT22;12804;51.176;4.452;2023-05-16T03:12:32;9.10;1.00
24686;DHT22;12804;51.176;4.452;2023-05-16T03:14:58;9.10;1.00
24686;DHT22;12804;51.176;4.452;2023-05-16T03:17:23;9.00;2.10
24686;DHT22;12804;51.176;4.452;2023-05-16T03:19:50;9.10;2.60
24686;DHT22;12804;51.176;4.452;2023-05-16T03:22:16;9.10;1.00
24686;DHT22;12804;51.176;4.452;2023-05-16T03:24:41;9.20;1.00
24686;DHT22;12804;51.176;4.452;2023-05-16T03:27:10;9.10;1.00
24686;DHT22;12804;51.176;4.452;2023-05-16T03:29:36;9.00;1.00
24686;DHT22;12804;51.176;4.452;2023-05-16T03:32:02;9.00;2.90
24686;DHT22;12804;51.176;4.452;2023-05-16T03:34:28;9.10;1.00
24686;DHT22;12804;51.176;4.452;2023-05-16T03:36:54;9.10;1.00
24686;DHT22;12804;51.176;4.452;2023-05-16T03:39:20;9.10;1.00
24686;DHT22;12804;51.176;4.452;2023-05-16T03:41:46;9.10;1.00
24686;DHT22;12804;51.176;4.452;2023-05-16T03:44:11;9.10;1.00
24686;DHT22;12804;51.176;4.452;2023-05-16T03:46:37;9.10;1.00
24686;DHT22;12804;51.176;4.452;2023-05-16T03:49:03;9.00;1.70
24686;DHT22;12804;51.176;4.452;2023-05-16T03:51:29;8.90;4.40
24686;DHT22;12804;51.176;4.452;2023-05-16T03:53:55;8.90;8.00
24686;DHT22;12804;51.176;4.452;2023-05-16T03:56:21;8.90;11.40
24686;DHT22;12804;51.176;4.452;2023-05-16T03:58:47;8.90;13.30
24686;DHT22;12804;51.176;4.452;2023-05-16T04:01:13;9.00;10.20
24686;DHT22;12804;51.176;4.452;2023-05-16T04:03:39;9.00;8.00
24686;DHT22;12804;51.176;4.452;2023-05-16T04:06:06;9.00;8.50
24686;DHT22;12804;51.176;4.452;2023-05-16T04:08:32;9.00;9.30
24686;DHT22;12804;51.176;4.452;2023-05-16T04:10:58;9.00;12.70
24686;DHT22;12804;51.176;4.452;2023-05-16T04:13:23;9.00;11.70
24686;DHT22;12804;51.176;4.452;2023-05-16T04:15:50;9.00;10.70
24686;DHT22;12804;51.176;4.452;2023-05-16T04:18:15;9.00;12.50
24686;DHT22;12804;51.176;4.452;2023-05-16T04:20:42;9.00;13.60
24686;DHT22;12804;51.176;4.452;2023-05-16T04:23:09;9.00;12.90
24686;DHT22;12804;51.176;4.452;2023-05-16T04:25:37;9.00;13.00
24686;DHT22;12804;51.176;4.452;2023-05-16T04:28:04;9.10;9.30
24686;DHT22;12804;51.176;4.452;2023-05-16T04:30:30;9.10;6.80
24686;DHT22;12804;51.176;4.452;2023-05-16T04:32:56;9.20;7.30
24686;DHT22;12804;51.176;4.452;2023-05-16T04:35:24;9.30;2.80
24686;DHT22;12804;51.176;4.452;2023-05-16T04:37:51;9.30;1.70
24686;DHT22;12804;51.176;4.452;2023-05-16T04:40:16;9.30;4.10
24686;DHT22;12804;51.176;4.452;2023-05-16T04:42:42;9.30;4.00
24686;DHT22;12804;51.176;4.452;2023-05-16T04:45:08;9.30;5.80
24686;DHT22;12804;51.176;4.452;2023-05-16T04:47:39;9.30;9.00
24686;DHT22;12804;51.176;4.452;2023-05-16T04:50:05;9.40;2.00
24686;DHT22;12804;51.176;4.452;2023-05-16T04:52:33;9.50;1.00
24686;DHT22;12804;51.176;4.452;2023-05-16T04:54:59;9.50;1.00
24686;DHT22;12804;51.176;4.452;2023-05-16T04:57:26;9.70;1.00
24686;DHT22;12804;51.176;4.452;2023-05-16T04:59:52;9.60;1.00
24686;DHT22;12804;51.176;4.452;2023-05-16T05:02:18;9.60;1.00
24686;DHT22;12804;51.176;4.452;2023-05-16T05:04:43;9.60;1.00
24686;DHT22;12804;51.176;4.452;2023-05-16T05:07:09;9.70;1.00
24686;DHT22;12804;51.176;4.452;2023-05-16T05:09:35;9.80;1.00
24686;DHT22;12804;51.176;4.452;2023-05-16T05:12:01;9.80;1.00
24686;DHT22;12804;51.176;4.452;2023-05-16T05:14:27;9.80;1.00
24686;DHT22;12804;51.176;4.452;2023-05-16T05:16:52;9.90;1.00
24686;DHT22;12804;51.176;4.452;2023-05-16T05:19:18;10.00;1.00
24686;DHT22;12804;51.176;4.452;2023-05-16T05:21:44;10.00;1.00
24686;DHT22;12804;51.176;4.452;2023-05-16T05:24:10;10.20;1.00
24686;DHT22;12804;51.176;4.452;2023-05-16T05:26:36;10.20;1.00
24686;DHT22;12804;51.176;4.452;2023-05-16T05:29:02;10.40;1.00
24686;DHT22;12804;51.176;4.452;2023-05-16T05:31:27;10.50;1.00
24686;DHT22;12804;51.176;4.452;2023-05-16T05:33:53;10.50;1.00
24686;DHT22;12804;51.176;4.452;2023-05-16T05:36:21;10.70;1.00
24686;DHT22;12804;51.176;4.452;2023-05-16T05:38:46;10.80;1.00
24686;DHT22;12804;51.176;4.452;2023-05-16T05:41:12;10.80;1.00
24686;DHT22;12804;51.176;4.452;2023-05-16T05:43:38;10.80;1.00
24686;DHT22;12804;51.176;4.452;2023-05-16T05:46:04;10.90;1.00
24686;DHT22;12804;51.176;4.452;2023-05-16T05:48:31;10.90;1.00
24686;DHT22;12804;51.176;4.452;2023-05-16T05:50:57;11.00;1.00
24686;DHT22;12804;51.176;4.452;2023-05-16T05:53:23;11.00;1.00
24686;DHT22;12804;51.176;4.452;2023-05-16T05:55:49;11.00;1.00
24686;DHT22;12804;51.176;4.452;2023-05-16T05:58:15;11.00;1.00
24686;DHT22;12804;51.176;4.452;2023-05-16T06:00:42;11.10;1.00
24686;DHT22;12804;51.176;4.452;2023-05-16T06:03:09;11.40;1.00
24686;DHT22;12804;51.176;4.452;2023-05-16T06:05:35;11.50;1.00
24686;DHT22;12804;51.176;4.452;2023-05-16T06:08:01;11.50;1.00
24686;DHT22;12804;51.176;4.452;2023-05-16T06:10:26;11.60;1.00
24686;DHT22;12804;51.176;4.452;2023-05-16T06:12:52;11.60;1.00
24686;DHT22;12804;51.176;4.452;2023-05-16T06:15:18;11.60;1.00
24686;DHT22;12804;51.176;4.452;2023-05-16T06:17:44;11.60;1.00
24686;DHT22;12804;51.176;4.452;2023-05-16T06:20:10;11.70;1.00
24686;DHT22;12804;51.176;4.452;2023-05-16T06:22:36;11.70;1.00
24686;DHT22;12804;51.176;4.452;2023-05-16T06:25:02;11.70;1.00
24686;DHT22;12804;51.176;4.452;2023-05-16T06:27:28;11.70;1.00
24686;DHT22;12804;51.176;4.452;2023-05-16T06:29:54;11.70;1.00
24686;DHT22;12804;51.176;4.452;2023-05-16T06:32:20;11.70;1.00
24686;DHT22;12804;51.176;4.452;2023-05-16T06:34:46;11.80;1.00
24686;DHT22;12804;51.176;4.452;2023-05-16T06:37:11;11.90;1.00
24686;DHT22;12804;51.176;4.452;2023-05-16T06:39:37;12.00;99.90
24686;DHT22;12804;51.176;4.452;2023-05-16T06:42:03;12.20;99.90
24686;DHT22;12804;51.176;4.452;2023-05-16T06:44:31;12.40;99.90
24686;DHT22;12804;51.176;4.452;2023-05-16T06:46:57;12.50;99.90
24686;DHT22;12804;51.176;4.452;2023-05-16T06:49:23;12.50;99.90
24686;DHT22;12804;51.176;4.452;2023-05-16T06:51:49;12.60;99.90
24686;DHT22;12804;51.176;4.452;2023-05-16T06:54:14;12.80;99.90
24686;DHT22;12804;51.176;4.452;2023-05-16T06:56:40;13.00;99.90
24686;DHT22;12804;51.176;4.452;2023-05-16T06:59:06;13.10;99.90
24686;DHT22;12804;51.176;4.452;2023-05-16T07:01:32;13.40;99.90
24686;DHT22;12804;51.176;4.452;2023-05-16T07:03:58;13.40;9.40
24686;DHT22;12804;51.176;4.452;2023-05-16T07:06:23;13.80;1.00
24686;DHT22;12804;51.176;4.452;2023-05-16T07:08:49;13.90;1.00
24686;DHT22;12804;51.176;4.452;2023-05-16T07:11:15;14.00;1.00
24686;DHT22;12804;51.176;4.452;2023-05-16T07:13:41;14.00;1.00
24686;DHT22;12804;51.176;4.452;2023-05-16T07:16:07;14.00;99.90
24686;DHT22;12804;51.176;4.452;2023-05-16T07:18:33;13.90;99.90
24686;DHT22;12804;51.176;4.452;2023-05-16T07:20:58;13.80;99.90
24686;DHT22;12804;51.176;4.452;2023-05-16T07:23:25;13.60;1.00
24686;DHT22;12804;51.176;4.452;2023-05-16T07:25:51;13.70;99.90
24686;DHT22;12804;51.176;4.452;2023-05-16T07:28:17;13.60;99.90
24686;DHT22;12804;51.176;4.452;2023-05-16T07:30:43;13.50;99.90
24686;DHT22;12804;51.176;4.452;2023-05-16T07:33:09;13.30;1.00
24686;DHT22;12804;51.176;4.452;2023-05-16T07:35:35;13.30;1.00
24686;DHT22;12804;51.176;4.452;2023-05-16T07:38:00;13.40;1.00
24686;DHT22;12804;51.176;4.452;2023-05-16T07:40:26;13.70;1.00
24686;DHT22;12804;51.176;4.452;2023-05-16T07:42:53;13.80;99.90
24686;DHT22;12804;51.176;4.452;2023-05-16T07:45:19;13.90;1.00
24686;DHT22;12804;51.176;4.452;2023-05-16T07:47:45;13.70;1.00
24686;DHT22;12804;51.176;4.452;2023-05-16T07:50:11;13.60;99.90
24686;DHT22;12804;51.176;4.452;2023-05-16T07:52:37;13.50;1.00
24686;DHT22;12804;51.176;4.452;2023-05-16T07:55:03;13.50;1.00
24686;DHT22;12804;51.176;4.452;2023-05-16T07:57:29;13.40;1.00
24686;DHT22;12804;51.176;4.452;2023-05-16T07:59:54;13.30;1.00
24686;DHT22;12804;51.176;4.452;2023-05-16T08:02:22;13.40;1.00
24686;DHT22;12804;51.176;4.452;2023-05-16T08:04:50;13.20;1.00
24686;DHT22;12804;51.176;4.452;2023-05-16T08:07:16;13.20;99.90
24686;DHT22;12804;51.176;4.452;2023-05-16T08:09:42;13.20;99.90
24686;DHT22;12804;51.176;4.452;2023-05-16T08:12:08;13.10;99.90
24686;DHT22;12804;51.176;4.452;2023-05-16T08:14:34;13.10;99.90
24686;DHT22;12804;51.176;4.452;2023-05-16T08:17:01;13.20;99.90
24686;DHT22;12804;51.176;4.452;2023-05-16T08:19:27;13.30;99.90
24686;DHT22;12804;51.176;4.452;2023-05-16T08:21:54;13.60;99.90
24686;DHT22;12804;51.176;4.452;2023-05-16T08:24:19;13.80;99.90
24686;DHT22;12804;51.176;4.452;2023-05-16T08:26:45;13.90;1.00
24686;DHT22;12804;51.176;4.452;2023-05-16T08:29:11;13.80;1.00
24686;DHT22;12804;51.176;4.452;2023-05-16T08:31:37;13.80;1.00
24686;DHT22;12804;51.176;4.452;2023-05-16T08:34:03;13.60;1.00
24686;DHT22;12804;51.176;4.452;2023-05-16T08:36:30;13.50;1.00
24686;DHT22;12804;51.176;4.452;2023-05-16T08:38:59;13.50;99.90
24686;DHT22;12804;51.176;4.452;2023-05-16T08:41:25;13.60;99.90
24686;DHT22;12804;51.176;4.452;2023-05-16T08:43:51;13.50;1.00
24686;DHT22;12804;51.176;4.452;2023-05-16T08:46:21;13.60;1.00
24686;DHT22;12804;51.176;4.452;2023-05-16T08:48:51;13.70;1.00
24686;DHT22;12804;51.176;4.452;2023-05-16T08:51:18;13.80;1.00
24686;DHT22;12804;51.176;4.452;2023-05-16T08:53:53;13.90;99.90
24686;DHT22;12804;51.176;4.452;2023-05-16T08:56:21;14.00;99.90
24686;DHT22;12804;51.176;4.452;2023-05-16T08:58:49;13.90;1.00
24686;DHT22;12804;51.176;4.452;2023-05-16T09:01:15;13.90;1.00
24686;DHT22;12804;51.176;4.452;2023-05-16T09:03:41;14.00;1.00
24686;DHT22;12804;51.176;4.452;2023-05-16T09:06:07;13.80;1.00
24686;DHT22;12804;51.176;4.452;2023-05-16T09:08:33;13.80;1.00
24686;DHT22;12804;51.176;4.452;2023-05-16T09:11:01;13.90;1.00
24686;DHT22;12804;51.176;4.452;2023-05-16T09:13:27;13.90;11.50
24686;DHT22;12804;51.176;4.452;2023-05-16T09:16:11;14.00;1.00
24686;DHT22;12804;51.176;4.452;2023-05-16T09:18:45;14.20;99.90
24686;DHT22;12804;51.176;4.452;2023-05-16T09:21:11;14.40;48.00
24686;DHT22;12804;51.176;4.452;2023-05-16T09:23:37;14.30;99.90
24686;DHT22;12804;51.176;4.452;2023-05-16T09:26:06;14.30;99.90
24686;DHT22;12804;51.176;4.452;2023-05-16T09:28:33;14.50;86.80
24686;DHT22;12804;51.176;4.452;2023-05-16T09:30:59;14.60;1.00
24686;DHT22;12804;51.176;4.452;2023-05-16T09:33:27;14.80;99.90
24686;DHT22;12804;51.176;4.452;2023-05-16T09:36:00;15.20;99.90
24686;DHT22;12804;51.176;4.452;2023-05-16T09:38:27;15.20;1.00
24686;DHT22;12804;51.176;4.452;2023-05-16T09:40:53;15.50;1.00
24686;DHT22;12804;51.176;4.452;2023-05-16T09:43:23;15.60;99.90
24686;DHT22;12804;51.176;4.452;2023-05-16T09:45:50;15.60;1.00
24686;DHT22;12804;51.176;4.452;2023-05-16T09:48:16;15.60;1.00
24686;DHT22;12804;51.176;4.452;2023-05-16T09:50:52;15.90;99.90
24686;DHT22;12804;51.176;4.452;2023-05-16T09:53:26;16.20;1.00
24686;DHT22;12804;51.176;4.452;2023-05-16T09:56:04;16.60;99.90
24686;DHT22;12804;51.176;4.452;2023-05-16T09:58:33;16.40;1.00
24686;DHT22;12804;51.176;4.452;2023-05-16T10:01:00;16.60;99.90
24686;DHT22;12804;51.176;4.452;2023-05-16T10:03:27;16.80;99.90
24686;DHT22;12804;51.176;4.452;2023-05-16T10:05:54;17.00;99.90
24686;DHT22;12804;51.176;4.452;2023-05-16T10:08:21;17.00;1.00
24686;DHT22;12804;51.176;4.452;2023-05-16T10:10:52;16.90;1.00
24686;DHT22;12804;51.176;4.452;2023-05-16T10:13:28;16.70;99.90
24686;DHT22;12804;51.176;4.452;2023-05-16T10:15:55;16.60;77.50
24686;DHT22;12804;51.176;4.452;2023-05-16T10:18:23;16.50;99.90
24686;DHT22;12804;51.176;4.452;2023-05-16T10:20:54;16.30;99.90
24686;DHT22;12804;51.176;4.452;2023-05-16T10:23:20;16.10;99.90
24686;DHT22;12804;51.176;4.452;2023-05-16T10:25:48;16.20;1.00
24686;DHT22;12804;51.176;4.452;2023-05-16T10:28:15;16.20;1.00
24686;DHT22;12804;51.176;4.452;2023-05-16T10:30:42;16.40;1.00
24686;DHT22;12804;51.176;4.452;2023-05-16T10:33:13;16.50;1.00
24686;DHT22;12804;51.176;4.452;2023-05-16T10:35:39;16.60;16.30
24686;DHT22;12804;51.176;4.452;2023-05-16T10:38:07;16.70;5.30
24686;DHT22;12804;51.176;4.452;2023-05-16T10:40:35;16.80;99.90
24686;DHT22;12804;51.176;4.452;2023-05-16T10:43:04;16.80;92.40
24686;DHT22;12804;51.176;4.452;2023-05-16T10:45:30;16.80;92.90
24686;DHT22;12804;51.176;4.452;2023-05-16T10:48:02;16.80;1.00
24686;DHT22;12804;51.176;4.452;2023-05-16T10:53:22;17.20;99.90
24686;DHT22;12804;51.176;4.452;2023-05-16T11:01:18;18.00;99.90
24686;DHT22;12804;51.176;4.452;2023-05-16T11:06:52;18.50;92.10
24686;DHT22;12804;51.176;4.452;2023-05-16T11:09:23;18.60;1.00
24686;DHT22;12804;51.176;4.452;2023-05-16T11:17:07;21.50;44.90
24686;DHT22;12804;51.176;4.452;2023-05-16T11:24:55;19.00;99.90
24686;DHT22;12804;51.176;4.452;2023-05-16T11:29:53;20.40;99.90
24686;DHT22;12804;51.176;4.452;2023-05-16T11:32:20;22.10;1.00
24686;DHT22;12804;51.176;4.452;2023-05-16T11:34:50;23.90;1.00
24686;DHT22;12804;51.176;4.452;2023-05-16T11:37:17;23.20;1.00
24686;DHT22;12804;51.176;4.452;2023-05-16T11:39:44;22.50;1.00
24686;DHT22;12804;51.176;4.452;2023-05-16T11:42:10;21.40;1.00
24686;DHT22;12804;51.176;4.452;2023-05-16T11:44:36;21.10;1.00
24686;DHT22;12804;51.176;4.452;2023-05-16T11:47:02;21.90;1.00
24686;DHT22;12804;51.176;4.452;2023-05-16T11:49:28;23.30;1.00
24686;DHT22;12804;51.176;4.452;2023-05-16T11:51:54;24.50;1.00
24686;DHT22;12804;51.176;4.452;2023-05-16T11:54:22;25.80;99.90
24686;DHT22;12804;51.176;4.452;2023-05-16T11:56:50;25.40;99.90
24686;DHT22;12804;51.176;4.452;2023-05-16T11:59:16;24.30;99.90
24686;DHT22;12804;51.176;4.452;2023-05-16T12:01:42;23.20;99.90
24686;DHT22;12804;51.176;4.452;2023-05-16T12:04:09;22.70;99.90
24686;DHT22;12804;51.176;4.452;2023-05-16T12:06:37;22.00;99.90
24686;DHT22;12804;51.176;4.452;2023-05-16T12:09:04;21.40;99.90
24686;DHT22;12804;51.176;4.452;2023-05-16T12:11:44;21.00;99.90
24686;DHT22;12804;51.176;4.452;2023-05-16T12:14:11;20.90;99.90
24686;DHT22;12804;51.176;4.452;2023-05-16T12:16:39;20.70;99.90
24686;DHT22;12804;51.176;4.452;2023-05-16T12:19:07;21.40;1.00
24686;DHT22;12804;51.176;4.452;2023-05-16T12:21:34;21.20;1.00
24686;DHT22;12804;51.176;4.452;2023-05-16T12:24:01;20.60;99.90
24686;DHT22;12804;51.176;4.452;2023-05-16T12:26:29;21.40;1.00
24686;DHT22;12804;51.176;4.452;2023-05-16T12:29:02;22.60;1.00
24686;DHT22;12804;51.176;4.452;2023-05-16T12:31:30;22.30;99.90
24686;DHT22;12804;51.176;4.452;2023-05-16T12:33:56;21.40;99.90
24686;DHT22;12804;51.176;4.452;2023-05-16T12:36:23;21.20;99.90
24686;DHT22;12804;51.176;4.452;2023-05-16T12:38:51;20.90;99.90
24686;DHT22;12804;51.176;4.452;2023-05-16T12:41:21;20.70;99.90
24686;DHT22;12804;51.176;4.452;2023-05-16T12:43:48;20.30;1.00
24686;DHT22;12804;51.176;4.452;2023-05-16T12:46:14;19.90;1.00
24686;DHT22;12804;51.176;4.452;2023-05-16T12:48:41;19.90;1.00
24686;DHT22;12804;51.176;4.452;2023-05-16T12:51:12;20.30;1.00
24686;DHT22;12804;51.176;4.452;2023-05-16T12:53:45;21.70;1.00
24686;DHT22;12804;51.176;4.452;2023-05-16T12:56:12;22.10;99.90
24686;DHT22;12804;51.176;4.452;2023-05-16T12:58:40;22.80;99.90
24686;DHT22;12804;51.176;4.452;2023-05-16T13:01:07;24.00;99.90
24686;DHT22;12804;51.176;4.452;2023-05-16T13:03:33;24.60;99.90
24686;DHT22;12804;51.176;4.452;2023-05-16T13:06:00;25.40;99.90
24686;DHT22;12804;51.176;4.452;2023-05-16T13:08:26;25.40;99.90
24686;DHT22;12804;51.176;4.452;2023-05-16T13:10:53;25.00;99.90
24686;DHT22;12804;51.176;4.452;2023-05-16T13:13:19;25.10;99.90
24686;DHT22;12804;51.176;4.452;2023-05-16T13:15:45;26.10;99.90
24686;DHT22;12804;51.176;4.452;2023-05-16T13:18:12;26.50;99.90
24686;DHT22;12804;51.176;4.452;2023-05-16T13:20:38;27.70;99.90
24686;DHT22;12804;51.176;4.452;2023-05-16T13:23:04;29.20;99.90
24686;DHT22;12804;51.176;4.452;2023-05-16T13:25:30;29.40;99.90
24686;DHT22;12804;51.176;4.452;2023-05-16T13:27:56;28.60;99.90
24686;DHT22;12804;51.176;4.452;2023-05-16T13:30:22;29.60;99.90
24686;DHT22;12804;51.176;4.452;2023-05-16T13:32:49;30.60;99.90
24686;DHT22;12804;51.176;4.452;2023-05-16T13:35:15;31.70;76.70
24686;DHT22;12804;51.176;4.452;2023-05-16T13:37:41;31.60;37.20
24686;DHT22;12804;51.176;4.452;2023-05-16T13:40:07;31.30;12.60
24686;DHT22;12804;51.176;4.452;2023-05-16T13:42:35;31.20;4.80
24686;DHT22;12804;51.176;4.452;2023-05-16T13:45:02;29.80;1.00
24686;DHT22;12804;51.176;4.452;2023-05-16T13:47:28;29.70;1.00
24686;DHT22;12804;51.176;4.452;2023-05-16T13:49:54;29.70;1.00
24686;DHT22;12804;51.176;4.452;2023-05-16T13:52:20;29.90;1.00
24686;DHT22;12804;51.176;4.452;2023-05-16T13:54:46;30.70;1.00
24686;DHT22;12804;51.176;4.452;2023-05-16T13:57:11;31.50;1.00
24686;DHT22;12804;51.176;4.452;2023-05-16T13:59:37;31.00;1.00
24686;DHT22;12804;51.176;4.452;2023-05-16T14:02:05;30.50;1.00
24686;DHT22;12804;51.176;4.452;2023-05-16T14:04:31;30.60;1.00
24686;DHT22;12804;51.176;4.452;2023-05-16T14:06:56;30.90;1.00
24686;DHT22;12804;51.176;4.452;2023-05-16T14:09:22;31.30;1.00
24686;DHT22;12804;51.176;4.452;2023-05-16T14:11:48;31.50;1.00
24686;DHT22;12804;51.176;4.452;2023-05-16T14:14:14;32.50;1.00
24686;DHT22;12804;51.176;4.452;2023-05-16T14:16:40;32.80;1.00
24686;DHT22;12804;51.176;4.452;2023-05-16T14:19:10;30.90;1.00
24686;DHT22;12804;51.176;4.452;2023-05-16T14:21:36;30.20;1.00
24686;DHT22;12804;51.176;4.452;2023-05-16T14:24:02;29.30;1.00
24686;DHT22;12804;51.176;4.452;2023-05-16T14:26:28;29.80;1.00
24686;DHT22;12804;51.176;4.452;2023-05-16T14:28:54;31.30;1.00
24686;DHT22;12804;51.176;4.452;2023-05-16T14:31:20;32.50;1.00
24686;DHT22;12804;51.176;4.452;2023-05-16T14:33:46;32.20;1.00
24686;DHT22;12804;51.176;4.452;2023-05-16T14:36:12;32.90;1.00
24686;DHT22;12804;51.176;4.452;2023-05-16T14:38:38;32.70;1.00
24686;DHT22;12804;51.176;4.452;2023-05-16T14:41:04;31.30;1.00
24686;DHT22;12804;51.176;4.452;2023-05-16T14:43:30;31.20;1.00
24686;DHT22;12804;51.176;4.452;2023-05-16T14:45:56;31.70;1.00
24686;DHT22;12804;51.176;4.452;2023-05-16T14:48:22;32.00;1.00
24686;DHT22;12804;51.176;4.452;2023-05-16T14:50:47;32.40;1.00
24686;DHT22;12804;51.176;4.452;2023-05-16T14:53:13;31.10;1.00
24686;DHT22;12804;51.176;4.452;2023-05-16T14:55:39;30.30;1.00
24686;DHT22;12804;51.176;4.452;2023-05-16T14:58:05;30.00;1.00
24686;DHT22;12804;51.176;4.452;2023-05-16T15:00:31;30.10;1.00
24686;DHT22;12804;51.176;4.452;2023-05-16T15:02:56;30.60;1.00
24686;DHT22;12804;51.176;4.452;2023-05-16T15:05:22;31.20;1.00
24686;DHT22;12804;51.176;4.452;2023-05-16T15:07:50;32.00;1.00
24686;DHT22;12804;51.176;4.452;2023-05-16T15:10:16;32.00;1.00
24686;DHT22;12804;51.176;4.452;2023-05-16T15:12:42;33.20;1.00
24686;DHT22;12804;51.176;4.452;2023-05-16T15:15:09;31.50;1.00
24686;DHT22;12804;51.176;4.452;2023-05-16T15:17:38;30.80;1.00
24686;DHT22;12804;51.176;4.452;2023-05-16T15:20:06;31.40;1.00
24686;DHT22;12804;51.176;4.452;2023-05-16T15:22:38;31.30;1.00
24686;DHT22;12804;51.176;4.452;2023-05-16T15:25:04;30.80;1.00
24686;DHT22;12804;51.176;4.452;2023-05-16T15:27:33;30.60;1.00
24686;DHT22;12804;51.176;4.452;2023-05-16T15:29:59;30.60;1.00
24686;DHT22;12804;51.176;4.452;2023-05-16T15:32:25;30.40;1.00
24686;DHT22;12804;51.176;4.452;2023-05-16T15:34:51;31.20;1.00
24686;DHT22;12804;51.176;4.452;2023-05-16T15:37:17;31.30;1.00
24686;DHT22;12804;51.176;4.452;2023-05-16T15:39:43;31.20;1.00
24686;DHT22;12804;51.176;4.452;2023-05-16T15:42:10;30.90;1.00
24686;DHT22;12804;51.176;4.452;2023-05-16T15:44:36;30.30;1.00
24686;DHT22;12804;51.176;4.452;2023-05-16T15:47:02;30.00;1.00
24686;DHT22;12804;51.176;4.452;2023-05-16T15:49:28;29.50;1.00
24686;DHT22;12804;51.176;4.452;2023-05-16T15:51:54;29.40;1.00
24686;DHT22;12804;51.176;4.452;2023-05-16T15:54:20;29.70;1.00
24686;DHT22;12804;51.176;4.452;2023-05-16T15:56:49;29.80;1.00
24686;DHT22;12804;51.176;4.452;2023-05-16T15:59:15;29.80;1.00
24686;DHT22;12804;51.176;4.452;2023-05-16T16:01:41;30.00;1.00
24686;DHT22;12804;51.176;4.452;2023-05-16T16:04:10;30.60;1.00
24686;DHT22;12804;51.176;4.452;2023-05-16T16:06:36;31.30;1.00
24686;DHT22;12804;51.176;4.452;2023-05-16T16:09:02;32.10;1.00
24686;DHT22;12804;51.176;4.452;2023-05-16T16:11:28;32.30;1.00
24686;DHT22;12804;51.176;4.452;2023-05-16T16:13:54;32.40;1.00
24686;DHT22;12804;51.176;4.452;2023-05-16T16:16:20;31.50;1.00
24686;DHT22;12804;51.176;4.452;2023-05-16T16:18:46;30.30;1.00
24686;DHT22;12804;51.176;4.452;2023-05-16T16:21:12;28.60;1.00
24686;DHT22;12804;51.176;4.452;2023-05-16T16:23:38;28.00;1.00